createdAt,value
2019-03-03T00:02:27.039Z,95093.30
2019-03-03T00:04:58.368Z,95097.76
2019-03-03T00:07:29.971Z,95102.58
2019-03-03T00:10:01.213Z,95093.90
2019-03-03T00:12:33.932Z,95103.50
2019-03-03T00:15:05.979Z,95101.73
2019-03-03T00:17:37.442Z,95104.22
2019-03-03T00:20:09.582Z,95112.05
2019-03-03T00:22:41.021Z,95111.95
2019-03-03T00:25:12.651Z,95108.06
2019-03-03T00:27:44.331Z,95105.84
2019-03-03T00:30:16.177Z,95110.28
2019-03-03T00:32:47.720Z,95107.91
2019-03-03T00:35:19.377Z,95104.84
2019-03-03T00:38:09.686Z,95106.00
2019-03-03T00:40:58.325Z,95106.11
2019-03-03T00:43:57.639Z,95111.16
2019-03-03T00:46:50.790Z,95118.05
2019-03-03T00:49:39.812Z,95115.58
2019-03-03T00:52:16.729Z,95116.02
2019-03-03T00:54:58.094Z,95114.47
2019-03-03T00:57:54.205Z,95114.55
2019-03-03T01:00:48.017Z,95118.64
2019-03-03T01:03:26.215Z,95121.69
2019-03-03T01:06:19.304Z,95121.78
2019-03-03T01:09:22.145Z,95120.29
2019-03-03T01:12:06.015Z,95120.98
2019-03-03T01:14:49.504Z,95120.88
2019-03-03T01:17:39.361Z,95117.52
2019-03-03T01:20:16.403Z,95115.78
2019-03-03T01:23:24.354Z,95115.31
2019-03-03T01:25:55.983Z,95115.76
2019-03-03T01:28:27.701Z,95117.52
2019-03-03T01:30:59.211Z,95121.20
2019-03-03T01:33:30.622Z,95126.94
2019-03-03T01:36:01.998Z,95119.41
2019-03-03T01:38:33.293Z,95126.94
2019-03-03T01:41:06.363Z,95123.87
2019-03-03T01:43:38.030Z,95123.63
2019-03-03T01:46:09.627Z,95126.62
2019-03-03T01:48:41.300Z,95116.36
2019-03-03T01:51:12.612Z,95123.98
2019-03-03T01:53:44.229Z,95128.97
2019-03-03T01:56:15.776Z,95127.80
2019-03-03T01:58:47.536Z,95132.84
2019-03-03T02:01:19.253Z,95125.73
2019-03-03T02:03:50.820Z,95132.05
2019-03-03T02:06:22.556Z,95133.47
2019-03-03T02:08:54.107Z,95125.66
2019-03-03T02:11:25.659Z,95131.80
2019-03-03T02:13:57.120Z,95130.04
2019-03-03T02:16:28.687Z,95127.07
2019-03-03T02:19:00.160Z,95133.44
2019-03-03T02:21:31.602Z,95131.26
2019-03-03T02:24:03.090Z,95127.39
2019-03-03T02:26:34.583Z,95131.41
2019-03-03T02:29:07.235Z,95125.16
2019-03-03T02:31:38.729Z,95127.42
2019-03-03T02:34:10.276Z,95138.83
2019-03-03T02:36:41.849Z,95132.02
2019-03-03T02:39:20.334Z,95135.30
2019-03-03T02:41:51.967Z,95138.52
2019-03-03T02:44:23.528Z,95144.50
2019-03-03T02:46:55.077Z,95149.69
2019-03-03T02:49:26.507Z,95146.84
2019-03-03T02:51:57.953Z,95146.98
2019-03-03T02:54:29.423Z,95151.11
2019-03-03T02:57:00.951Z,95155.55
2019-03-03T02:59:32.528Z,95160.94
2019-03-03T03:02:08.223Z,95159.44
2019-03-03T03:04:39.849Z,95157.31
2019-03-03T03:07:18.801Z,95156.53
2019-03-03T03:10:08.920Z,95153.11
2019-03-03T03:12:57.904Z,95147.69
2019-03-03T03:15:48.206Z,95149.24
2019-03-03T03:18:38.270Z,95146.72
2019-03-03T03:21:17.513Z,95149.24
2019-03-03T03:24:17.303Z,95148.86
2019-03-03T03:26:59.842Z,95150.02
2019-03-03T03:29:38.213Z,95150.09
2019-03-03T03:32:16.587Z,95150.36
2019-03-03T03:34:59.694Z,95149.25
2019-03-03T03:37:39.183Z,95148.66
2019-03-03T03:40:42.030Z,95146.94
2019-03-03T03:43:19.576Z,95146.94
2019-03-03T03:46:02.422Z,95147.96
2019-03-03T03:48:54.535Z,95147.43
2019-03-03T03:52:02.842Z,95145.41
2019-03-03T03:54:53.691Z,95144.61
2019-03-03T03:57:31.632Z,95145.95
2019-03-03T04:00:39.613Z,95144.48
2019-03-03T04:03:48.075Z,95143.53
2019-03-03T04:06:56.156Z,95145.11
2019-03-03T04:09:41.106Z,95150.29
2019-03-03T04:12:27.920Z,95151.27
2019-03-03T04:15:17.261Z,95150.78
2019-03-03T04:18:02.958Z,95148.97
2019-03-03T04:20:52.253Z,95150.88
2019-03-03T04:23:48.769Z,95145.81
2019-03-03T04:26:42.070Z,95139.36
2019-03-03T04:29:22.934Z,95146.89
2019-03-03T04:32:14.506Z,95149.60
2019-03-03T04:35:04.514Z,95147.45
2019-03-03T04:38:07.399Z,95151.89
2019-03-03T04:40:56.799Z,95151.73
2019-03-03T04:43:37.731Z,95148.62
2019-03-03T04:46:30.798Z,95153.34
2019-03-03T04:49:11.842Z,95147.81
2019-03-03T04:52:08.217Z,95151.94
2019-03-03T04:54:58.454Z,95150.62
2019-03-03T04:57:40.478Z,95154.84
2019-03-03T05:00:36.083Z,95156.56
2019-03-03T05:03:29.431Z,95153.31
2019-03-03T05:06:18.361Z,95147.77
2019-03-03T05:09:03.497Z,95152.14
2019-03-03T05:12:49.768Z,95161.71
2019-03-03T05:15:42.186Z,95161.36
2019-03-03T05:18:21.197Z,95166.23
2019-03-03T05:20:53.198Z,95166.15
2019-03-03T05:23:24.751Z,95163.83
2019-03-03T05:25:56.135Z,95168.63
2019-03-03T05:28:27.576Z,95170.02
2019-03-03T05:30:59.003Z,95163.89
2019-03-03T05:33:30.579Z,95174.33
2019-03-03T05:36:02.001Z,95178.61
2019-03-03T05:38:33.571Z,95178.95
2019-03-03T05:41:05.249Z,95178.52
2019-03-03T05:43:36.529Z,95191.49
2019-03-03T05:46:08.071Z,95190.99
2019-03-03T05:48:39.536Z,95192.56
2019-03-03T05:51:11.186Z,95193.30
2019-03-03T05:53:42.796Z,95203.95
2019-03-03T05:56:14.399Z,95202.02
2019-03-03T05:58:45.620Z,95202.95
2019-03-03T06:01:16.960Z,95202.31
2019-03-03T06:03:48.144Z,95206.64
2019-03-03T06:06:19.467Z,95210.98
2019-03-03T06:08:50.828Z,95208.92
2019-03-03T06:11:22.349Z,95212.38
2019-03-03T06:13:53.869Z,95215.20
2019-03-03T06:16:25.235Z,95216.55
2019-03-03T06:18:56.695Z,95217.23
2019-03-03T06:21:28.182Z,95220.93
2019-03-03T06:23:59.639Z,95209.80
2019-03-03T06:26:30.844Z,95219.06
2019-03-03T06:29:02.269Z,95206.98
2019-03-03T06:31:33.525Z,95214.81
2019-03-03T06:34:04.923Z,95218.98
2019-03-03T06:36:36.061Z,95222.39
2019-03-03T06:39:08.298Z,95223.80
2019-03-03T06:41:39.768Z,95229.92
2019-03-03T06:44:11.283Z,95229.97
2019-03-03T06:46:42.451Z,95233.76
2019-03-03T06:49:13.607Z,95233.12
2019-03-03T06:51:45.085Z,95235.92
2019-03-03T06:54:16.668Z,95237.10
2019-03-03T06:56:48.205Z,95240.55
2019-03-03T06:59:19.520Z,95238.98
2019-03-03T07:01:51.942Z,95245.18
2019-03-03T07:04:23.121Z,95245.50
2019-03-03T07:06:54.576Z,95243.11
2019-03-03T07:09:25.976Z,95247.36
2019-03-03T07:11:57.299Z,95254.41
2019-03-03T07:14:28.564Z,95253.17
2019-03-03T07:17:00.042Z,95250.97
2019-03-03T07:19:31.555Z,95252.14
2019-03-03T07:22:06.116Z,95249.25
2019-03-03T07:24:37.491Z,95253.41
2019-03-03T07:27:08.849Z,95256.25
2019-03-03T07:29:41.246Z,95249.91
2019-03-03T07:32:12.781Z,95259.09
2019-03-03T07:34:44.147Z,95258.87
2019-03-03T07:37:15.744Z,95254.86
2019-03-03T07:39:47.086Z,95260.16
2019-03-03T07:42:18.302Z,95261.55
2019-03-03T07:44:49.894Z,95266.03
2019-03-03T07:47:21.371Z,95255.56
2019-03-03T07:49:52.619Z,95261.55
2019-03-03T07:52:24.130Z,95270.96
2019-03-03T07:54:55.542Z,95275.22
2019-03-03T07:57:26.696Z,95279.20
2019-03-03T07:59:57.927Z,95276.14
2019-03-03T08:02:29.361Z,95277.81
2019-03-03T08:05:01.130Z,95272.24
2019-03-03T08:07:33.738Z,95275.56
2019-03-03T08:10:05.717Z,95272.69
2019-03-03T08:12:37.256Z,95271.52
2019-03-03T08:15:08.637Z,95273.90
2019-03-03T08:17:40.286Z,95279.08
2019-03-03T08:20:11.969Z,95275.19
2019-03-03T08:22:43.305Z,95270.95
2019-03-03T08:25:14.893Z,95279.17
2019-03-03T08:27:48.037Z,95283.66
2019-03-03T08:30:19.693Z,95278.27
2019-03-03T08:32:51.036Z,95285.07
2019-03-03T08:35:22.570Z,95288.70
2019-03-03T08:37:53.850Z,95289.66
2019-03-03T08:40:25.313Z,95295.66
2019-03-03T08:43:24.668Z,95291.19
2019-03-03T08:46:13.734Z,95290.80
2019-03-03T08:48:58.325Z,95291.23
2019-03-03T08:51:44.240Z,95291.90
2019-03-03T08:54:34.804Z,95288.43
2019-03-03T08:57:30.907Z,95296.95
2019-03-03T09:00:21.047Z,95291.63
2019-03-03T09:03:14.001Z,95288.56
2019-03-03T09:06:02.927Z,95294.66
2019-03-03T09:08:53.313Z,95293.63
2019-03-03T09:11:46.370Z,95292.85
2019-03-03T09:14:44.004Z,95292.36
2019-03-03T09:17:43.030Z,95290.58
2019-03-03T09:20:34.039Z,95292.98
2019-03-03T09:23:27.273Z,95294.59
2019-03-03T09:26:18.186Z,95293.03
2019-03-03T09:29:08.267Z,95287.73
2019-03-03T09:31:54.919Z,95284.63
2019-03-03T09:34:43.920Z,95289.26
2019-03-03T09:37:39.880Z,95287.06
2019-03-03T09:40:32.810Z,95285.58
2019-03-03T09:43:18.867Z,95287.93
2019-03-03T09:46:07.583Z,95283.35
2019-03-03T09:49:02.459Z,95287.67
2019-03-03T09:51:52.831Z,95294.89
2019-03-03T09:54:42.011Z,95287.36
2019-03-03T09:57:38.520Z,95283.63
2019-03-03T10:00:28.469Z,95288.05
2019-03-03T10:03:24.923Z,95293.61
2019-03-03T10:06:13.768Z,95292.14
2019-03-03T10:09:03.207Z,95297.11
2019-03-03T10:12:04.025Z,95293.81
2019-03-03T10:15:09.793Z,95295.47
2019-03-03T10:18:03.150Z,95293.44
2019-03-03T10:20:53.543Z,95288.18
2019-03-03T10:23:55.827Z,95279.00
2019-03-03T10:26:50.304Z,95275.88
2019-03-03T10:29:38.289Z,95278.09
2019-03-03T10:32:28.650Z,95272.18
2019-03-03T10:35:27.720Z,95272.47
2019-03-03T10:38:18.154Z,95266.91
2019-03-03T10:41:01.670Z,95273.88
2019-03-03T10:43:39.461Z,95267.66
2019-03-03T10:46:28.480Z,95272.20
2019-03-03T10:49:24.892Z,95265.64
2019-03-03T10:52:15.282Z,95265.56
2019-03-03T10:55:08.422Z,95261.95
2019-03-03T10:57:54.490Z,95265.88
2019-03-03T11:00:33.344Z,95271.30
2019-03-03T11:03:14.839Z,95270.06
2019-03-03T11:06:11.329Z,95273.77
2019-03-03T11:09:00.511Z,95271.31
2019-03-03T11:11:48.400Z,95272.66
2019-03-03T11:14:29.035Z,95274.68
2019-03-03T11:17:20.365Z,95266.69
2019-03-03T11:20:16.167Z,95271.18
2019-03-03T11:23:11.269Z,95265.14
2019-03-03T11:26:07.715Z,95258.84
2019-03-03T11:28:48.276Z,95263.75
2019-03-03T11:31:47.792Z,95261.27
2019-03-03T11:34:29.716Z,95255.17
2019-03-03T11:37:19.942Z,95252.70
2019-03-03T11:40:22.136Z,95254.13
2019-03-03T11:43:02.456Z,95260.08
2019-03-03T11:45:48.682Z,95260.86
2019-03-03T11:48:44.115Z,95255.45
2019-03-03T11:51:34.837Z,95253.53
2019-03-03T11:54:12.099Z,95259.20
2019-03-03T11:56:55.453Z,95253.53
2019-03-03T11:59:44.601Z,95252.66
2019-03-03T12:02:28.687Z,95245.91
2019-03-03T12:05:16.216Z,95252.06
2019-03-03T12:08:03.917Z,95244.11
2019-03-03T12:10:51.367Z,95245.78
2019-03-03T12:13:29.464Z,95244.80
2019-03-03T12:16:17.165Z,95240.92
2019-03-03T12:19:10.419Z,95245.14
2019-03-03T12:21:59.394Z,95246.33
2019-03-03T12:24:44.314Z,95240.00
2019-03-03T12:27:32.408Z,95246.63
2019-03-03T12:30:21.077Z,95243.27
2019-03-03T12:33:25.345Z,95242.76
2019-03-03T12:36:11.959Z,95232.47
2019-03-03T12:39:02.791Z,95241.23
2019-03-03T12:41:58.783Z,95236.05
2019-03-03T12:44:50.772Z,95238.58
2019-03-03T12:47:27.458Z,95232.36
2019-03-03T12:50:19.260Z,95229.97
2019-03-03T12:53:06.444Z,95232.34
2019-03-03T12:55:55.213Z,95232.47
2019-03-03T12:58:42.130Z,95232.45
2019-03-03T13:01:49.249Z,95221.22
2019-03-03T13:04:37.776Z,95228.64
2019-03-03T13:07:44.889Z,95227.36
2019-03-03T13:10:24.876Z,95225.36
2019-03-03T13:13:19.610Z,95226.12
2019-03-03T13:15:59.914Z,95227.20
2019-03-03T13:18:47.116Z,95227.73
2019-03-03T13:21:33.723Z,95220.34
2019-03-03T13:24:37.618Z,95220.23
2019-03-03T13:27:35.323Z,95222.83
2019-03-03T13:30:23.396Z,95216.45
2019-03-03T13:33:18.359Z,95212.36
2019-03-03T13:36:09.920Z,95205.33
2019-03-03T13:39:01.866Z,95205.27
2019-03-03T13:41:46.926Z,95211.31
2019-03-03T13:44:16.798Z,95201.17
2019-03-03T13:46:46.866Z,95203.68
2019-03-03T13:49:16.985Z,95199.52
2019-03-03T13:51:46.881Z,95203.02
2019-03-03T13:54:16.994Z,95204.94
2019-03-03T13:56:48.029Z,95209.03
2019-03-03T13:59:17.968Z,95203.12
2019-03-03T14:01:48.513Z,95203.50
2019-03-03T14:04:18.858Z,95201.67
2019-03-03T14:06:49.203Z,95199.64
2019-03-03T14:09:19.155Z,95197.67
2019-03-03T14:11:49.497Z,95197.16
2019-03-03T14:14:19.497Z,95197.38
2019-03-03T14:16:49.708Z,95200.13
2019-03-03T14:19:19.778Z,95192.40
2019-03-03T14:21:49.948Z,95190.16
2019-03-03T14:24:20.310Z,95186.51
2019-03-03T14:26:50.341Z,95201.50
2019-03-03T14:29:20.261Z,95197.47
2019-03-03T14:31:51.624Z,95194.05
2019-03-03T14:34:21.618Z,95189.92
2019-03-03T14:36:51.595Z,95194.93
2019-03-03T14:39:21.944Z,95187.89
2019-03-03T14:41:51.847Z,95194.58
2019-03-03T14:44:22.060Z,95192.31
2019-03-03T14:46:52.028Z,95186.52
2019-03-03T14:49:21.695Z,95189.33
2019-03-03T14:51:51.538Z,95188.44
2019-03-03T14:54:21.450Z,95191.70
2019-03-03T14:56:51.406Z,95189.44
2019-03-03T14:59:21.237Z,95185.95
2019-03-03T15:01:51.940Z,95185.48
2019-03-03T15:04:21.925Z,95179.17
2019-03-03T15:06:52.016Z,95179.05
2019-03-03T15:09:24.108Z,95182.59
2019-03-03T15:11:53.926Z,95182.53
2019-03-03T15:14:24.317Z,95184.65
2019-03-03T15:16:54.186Z,95183.34
2019-03-03T15:19:24.215Z,95183.30
2019-03-03T15:21:54.356Z,95178.92
2019-03-03T15:24:24.660Z,95184.31
2019-03-03T15:26:54.374Z,95183.13
2019-03-03T15:29:24.539Z,95183.20
2019-03-03T15:31:54.600Z,95185.13
2019-03-03T15:34:24.645Z,95186.28
2019-03-03T15:36:54.696Z,95192.70
2019-03-03T15:39:24.692Z,95192.30
2019-03-03T15:41:54.732Z,95198.49
2019-03-03T15:44:24.778Z,95196.52
2019-03-03T15:46:54.862Z,95184.06
2019-03-03T15:49:24.870Z,95190.36
2019-03-03T15:51:55.810Z,95190.45
2019-03-03T15:54:25.653Z,95194.55
2019-03-03T15:56:55.564Z,95196.23
2019-03-03T15:59:25.443Z,95192.88
2019-03-03T16:01:56.500Z,95193.08
2019-03-03T16:04:26.347Z,95196.83
2019-03-03T16:06:56.206Z,95188.16
2019-03-03T16:09:25.948Z,95204.14
2019-03-03T16:11:56.036Z,95198.55
2019-03-03T16:14:26.187Z,95199.02
2019-03-03T16:16:56.413Z,95201.90
2019-03-03T16:19:26.527Z,95190.41
2019-03-03T16:21:56.509Z,95196.97
2019-03-03T16:24:26.605Z,95195.61
2019-03-03T16:26:56.760Z,95199.45
2019-03-03T16:29:26.828Z,95208.36
2019-03-03T16:31:56.996Z,95204.31
2019-03-03T16:34:26.934Z,95205.86
2019-03-03T16:36:56.789Z,95204.85
2019-03-03T16:39:26.517Z,95209.59
2019-03-03T16:41:56.554Z,95203.97
2019-03-03T16:44:26.697Z,95200.33
2019-03-03T16:46:56.711Z,95207.53
2019-03-03T16:49:26.547Z,95211.27
2019-03-03T16:51:56.766Z,95209.80
2019-03-03T16:54:27.025Z,95208.25
2019-03-03T16:56:56.964Z,95210.06
2019-03-03T16:59:26.951Z,95207.29
2019-03-03T17:01:56.781Z,95200.33
2019-03-03T17:04:26.543Z,95213.00
2019-03-03T17:06:56.277Z,95211.51
2019-03-03T17:09:26.126Z,95210.59
2019-03-03T17:11:56.208Z,95208.39
2019-03-03T17:14:26.129Z,95215.98
2019-03-03T17:16:57.079Z,95213.63
2019-03-03T17:19:27.097Z,95216.55
2019-03-03T17:21:57.150Z,95219.70
2019-03-03T17:24:27.144Z,95220.56
2019-03-03T17:26:57.038Z,95220.63
2019-03-03T17:29:27.264Z,95218.11
2019-03-03T17:31:57.256Z,95223.73
2019-03-03T17:34:27.335Z,95225.31
2019-03-03T17:36:57.177Z,95219.55
2019-03-03T17:39:26.980Z,95216.47
2019-03-03T17:41:56.843Z,95218.92
2019-03-03T17:44:26.763Z,95224.19
2019-03-03T17:46:56.790Z,95218.28
2019-03-03T17:49:26.925Z,95212.92
2019-03-03T17:51:56.928Z,95214.77
2019-03-03T17:54:26.932Z,95214.77
2019-03-03T17:56:56.711Z,95212.75
2019-03-03T17:59:26.750Z,95218.59
2019-03-03T18:01:56.574Z,95222.17
2019-03-03T18:04:26.301Z,95224.28
2019-03-03T18:06:56.305Z,95216.47
2019-03-03T18:09:26.412Z,95220.05
2019-03-03T18:11:56.180Z,95219.55
2019-03-03T18:14:25.898Z,95215.58
2019-03-03T18:16:55.884Z,95220.91
2019-03-03T18:19:25.909Z,95214.32
2019-03-03T18:21:55.920Z,95212.51
2019-03-03T18:24:25.818Z,95213.36
2019-03-03T18:26:55.618Z,95219.05
2019-03-03T18:29:25.805Z,95216.35
2019-03-03T18:31:55.568Z,95214.18
2019-03-03T18:34:25.536Z,95215.39
2019-03-03T18:36:55.672Z,95212.20
2019-03-03T18:39:25.436Z,95219.54
2019-03-03T18:41:55.158Z,95214.37
2019-03-03T18:44:24.870Z,95218.38
2019-03-03T18:46:54.613Z,95218.64
2019-03-03T18:49:24.444Z,95215.71
2019-03-03T18:51:54.269Z,95216.07
2019-03-03T18:54:24.279Z,95208.06
2019-03-03T18:56:54.017Z,95211.94
2019-03-03T18:59:24.068Z,95218.20
2019-03-03T19:01:54.793Z,95218.89
2019-03-03T19:04:25.063Z,95214.80
2019-03-03T19:06:54.927Z,95209.84
2019-03-03T19:09:24.969Z,95213.25
2019-03-03T19:11:54.991Z,95213.37
2019-03-03T19:14:28.299Z,95211.59
2019-03-03T19:16:57.941Z,95210.53
2019-03-03T19:19:28.028Z,95209.63
2019-03-03T19:21:58.148Z,95217.74
2019-03-03T19:24:28.233Z,95210.44
2019-03-03T19:26:58.265Z,95208.81
2019-03-03T19:29:28.055Z,95204.09
2019-03-03T19:31:57.960Z,95213.16
2019-03-03T19:34:27.937Z,95216.58
2019-03-03T19:36:57.776Z,95219.78
2019-03-03T19:39:27.542Z,95212.15
2019-03-03T19:41:57.573Z,95212.86
2019-03-03T19:44:27.376Z,95219.80
2019-03-03T19:46:57.190Z,95215.31
2019-03-03T19:49:27.019Z,95218.98
2019-03-03T19:51:56.834Z,95212.73
2019-03-03T19:54:26.751Z,95221.22
2019-03-03T19:56:56.741Z,95216.17
2019-03-03T19:59:26.502Z,95212.63
2019-03-03T20:01:56.478Z,95217.55
2019-03-03T20:04:26.491Z,95216.85
2019-03-03T20:06:56.986Z,95216.72
2019-03-03T20:09:27.087Z,95221.20
2019-03-03T20:11:56.941Z,95217.77
2019-03-03T20:14:26.855Z,95217.77
2019-03-03T20:16:56.614Z,95212.47
2019-03-03T20:19:26.365Z,95208.70
2019-03-03T20:21:56.245Z,95212.47
2019-03-03T20:24:26.314Z,95211.52
2019-03-03T20:26:56.310Z,95211.19
2019-03-03T20:29:27.430Z,95211.31
2019-03-03T20:31:58.221Z,95211.55
2019-03-03T20:34:27.997Z,95205.89
2019-03-03T20:36:59.056Z,95208.25
2019-03-03T20:39:28.937Z,95207.19
2019-03-03T20:41:58.998Z,95208.95
2019-03-03T20:44:28.861Z,95205.22
2019-03-03T20:46:58.617Z,95203.92
2019-03-03T20:49:28.842Z,95204.61
2019-03-03T20:51:59.888Z,95205.81
2019-03-03T20:54:29.645Z,95201.80
2019-03-03T20:56:59.404Z,95206.72
2019-03-03T20:59:29.224Z,95207.66
2019-03-03T21:01:59.056Z,95201.19
2019-03-03T21:04:28.773Z,95200.61
2019-03-03T21:06:58.809Z,95201.91
2019-03-03T21:09:28.533Z,95198.84
2019-03-03T21:11:58.294Z,95200.22
2019-03-03T21:14:28.151Z,95198.92
2019-03-03T21:17:01.789Z,95197.55
2019-03-03T21:19:31.840Z,95193.55
2019-03-03T21:22:01.795Z,95188.11
2019-03-03T21:24:31.506Z,95190.59
2019-03-03T21:27:01.296Z,95189.66
2019-03-03T21:29:31.486Z,95189.29
2019-03-03T21:32:01.263Z,95186.70
2019-03-03T21:34:31.107Z,95187.77
2019-03-03T21:37:01.006Z,95188.11
2019-03-03T21:39:30.829Z,95193.77
2019-03-03T21:42:00.856Z,95191.41
2019-03-03T21:44:30.601Z,95187.77
2019-03-03T21:47:00.344Z,95180.81
2019-03-03T21:49:30.244Z,95183.80
2019-03-03T21:52:00.002Z,95187.78
2019-03-03T21:54:29.855Z,95177.78
2019-03-03T21:56:59.576Z,95176.74
2019-03-03T21:59:29.313Z,95173.81
2019-03-03T22:01:59.122Z,95177.22
2019-03-03T22:04:29.156Z,95175.81
2019-03-03T22:06:59.003Z,95181.60
2019-03-03T22:09:29.005Z,95178.88
2019-03-03T22:11:58.766Z,95172.30
2019-03-03T22:14:28.525Z,95175.35
2019-03-03T22:16:58.237Z,95176.98
2019-03-03T22:19:27.984Z,95179.23
2019-03-03T22:21:57.759Z,95176.64
2019-03-03T22:24:27.533Z,95179.37
2019-03-03T22:26:57.314Z,95178.55
2019-03-03T22:29:27.051Z,95170.20
2019-03-03T22:31:56.826Z,95177.95
2019-03-03T22:34:26.701Z,95170.45
2019-03-03T22:36:56.588Z,95168.30
2019-03-03T22:39:26.631Z,95169.35
2019-03-03T22:41:56.706Z,95161.25
2019-03-03T22:44:26.453Z,95163.11
2019-03-03T22:46:56.182Z,95157.94
2019-03-03T22:49:26.025Z,95162.07
2019-03-03T22:51:56.033Z,95160.30
2019-03-03T22:54:26.063Z,95162.07
2019-03-03T22:56:55.818Z,95159.95
2019-03-03T22:59:25.739Z,95162.77
2019-03-03T23:01:55.849Z,95165.22
2019-03-03T23:04:56.883Z,95165.00
2019-03-03T23:07:29.180Z,95154.88
2019-03-03T23:10:12.897Z,95158.54
2019-03-03T23:12:47.815Z,95163.45
2019-03-03T23:15:25.109Z,95167.11
2019-03-03T23:18:07.567Z,95153.97
2019-03-03T23:21:02.530Z,95164.40
2019-03-03T23:23:48.712Z,95155.25
2019-03-03T23:26:18.845Z,95155.13
2019-03-03T23:28:48.745Z,95156.99
2019-03-03T23:31:18.696Z,95156.17
2019-03-03T23:33:48.579Z,95155.70
2019-03-03T23:36:18.532Z,95153.84
2019-03-03T23:38:48.504Z,95150.78
2019-03-03T23:41:18.238Z,95151.38
2019-03-03T23:43:48.406Z,95151.00
2019-03-03T23:46:18.275Z,95150.53
2019-03-03T23:48:48.313Z,95157.78
2019-03-03T23:51:18.073Z,95159.84
2019-03-03T23:53:48.028Z,95156.75
2019-03-03T23:56:17.766Z,95158.33
2019-03-03T23:58:47.727Z,95158.66
